createdAt,value
2023-11-01T04:50:00.705Z,60.57
2023-11-01T04:52:27.890Z,60.48
2023-11-01T04:54:55.049Z,61.87
2023-11-01T04:57:22.189Z,61.14
2023-11-01T04:59:49.118Z,61.85
2023-11-01T05:02:17.201Z,60.44
2023-11-01T05:04:44.231Z,60.66
2023-11-01T05:07:11.158Z,60.39
2023-11-01T05:09:38.079Z,60.06
2023-11-01T05:12:05.088Z,59.57
2023-11-01T05:14:32.061Z,59.58
2023-11-01T05:16:59.210Z,59.23
2023-11-01T05:19:26.244Z,59.01
2023-11-01T05:21:53.165Z,59.86
2023-11-01T05:24:20.068Z,59.18
2023-11-01T05:26:47.143Z,59.62
2023-11-01T05:29:14.106Z,60.58
2023-11-01T05:31:40.998Z,60.25
2023-11-01T05:34:07.909Z,60.11
2023-11-01T05:36:34.800Z,59.80
2023-11-01T05:39:01.720Z,60.58
2023-11-01T05:41:28.764Z,60.69
2023-11-01T05:43:55.669Z,60.64
2023-11-01T05:46:23.648Z,60.52
2023-11-01T05:48:50.647Z,61.70
2023-11-01T05:51:17.545Z,61.53
2023-11-01T05:53:44.433Z,62.85
2023-11-01T05:56:11.433Z,62.59
2023-11-01T05:58:38.341Z,63.10
2023-11-01T06:01:05.261Z,61.79
2023-11-01T06:03:32.739Z,61.33
2023-11-01T06:06:01.538Z,60.51
2023-11-01T06:08:28.566Z,60.52
2023-11-01T06:10:55.709Z,60.78
2023-11-01T06:13:22.626Z,60.99
2023-11-01T06:15:49.558Z,61.06
2023-11-01T06:18:16.589Z,60.73
2023-11-01T06:20:45.123Z,60.34
2023-11-01T06:23:12.191Z,60.50
2023-11-01T06:25:39.239Z,60.87
2023-11-01T06:28:06.730Z,60.17
2023-11-01T06:30:36.544Z,60.73
2023-11-01T06:33:03.951Z,62.17
2023-11-01T06:35:31.566Z,62.38
2023-11-01T06:37:58.534Z,62.53
2023-11-01T06:43:16.350Z,61.80
2023-11-01T06:45:43.223Z,60.28
2023-11-01T06:48:10.278Z,60.17
2023-11-01T06:50:37.551Z,60.12
2023-11-01T06:53:04.526Z,59.64
2023-11-01T06:55:31.546Z,59.92
2023-11-01T06:57:58.479Z,60.23
2023-11-01T07:00:25.523Z,59.79
2023-11-01T07:02:52.634Z,60.31
2023-11-01T07:05:19.723Z,59.20
2023-11-01T07:07:46.718Z,60.01
2023-11-01T07:10:13.770Z,59.36
2023-11-01T07:12:40.733Z,60.08
2023-11-01T07:15:07.650Z,60.41
2023-11-01T07:17:34.676Z,60.45
2023-11-01T07:20:01.725Z,59.02
2023-11-01T07:22:28.613Z,59.36
2023-11-01T07:24:55.669Z,59.46
2023-11-01T07:27:22.575Z,60.20
2023-11-01T07:29:49.536Z,60.67
2023-11-01T07:32:16.577Z,60.39
2023-11-01T07:34:43.544Z,60.12
2023-11-01T07:37:10.600Z,60.65
2023-11-01T07:39:37.580Z,60.14
2023-11-01T07:42:04.639Z,59.90
2023-11-01T07:44:31.563Z,60.69
2023-11-01T07:46:58.560Z,60.18
2023-11-01T07:49:25.517Z,60.42
2023-11-01T07:51:52.424Z,59.84
2023-11-01T07:54:19.439Z,59.96
2023-11-01T07:56:46.576Z,59.50
2023-11-01T07:59:13.514Z,59.14
2023-11-01T08:01:40.668Z,60.26
2023-11-01T08:04:07.999Z,59.67
2023-11-01T08:06:35.301Z,60.24
2023-11-01T08:09:02.479Z,59.33
2023-11-01T08:11:30.637Z,60.69
2023-11-01T08:19:52.050Z,60.53
2023-11-01T08:22:19.117Z,59.28
2023-11-01T08:24:46.174Z,59.54
2023-11-01T08:27:13.207Z,58.79
2023-11-01T08:29:43.857Z,60.34
2023-11-01T08:32:11.149Z,58.54
2023-11-01T08:34:38.543Z,58.48
2023-11-01T08:42:29.447Z,58.23
2023-11-01T08:44:57.806Z,57.77
2023-11-01T08:47:24.917Z,57.56
2023-11-01T08:49:52.004Z,58.34
2023-11-01T08:52:19.989Z,57.14
2023-11-01T08:54:46.930Z,58.29
2023-11-01T08:57:13.889Z,58.58
2023-11-01T08:59:40.887Z,58.33
2023-11-01T09:02:13.699Z,57.53
2023-11-01T09:04:42.895Z,57.84
2023-11-01T09:07:09.924Z,58.04
2023-11-01T09:09:36.830Z,58.11
2023-11-01T09:12:03.873Z,58.18
2023-11-01T09:14:30.863Z,57.58
2023-11-01T09:16:57.857Z,57.82
2023-11-01T09:19:28.580Z,58.79
2023-11-01T09:22:06.423Z,57.80
2023-11-01T09:24:33.536Z,58.51
2023-11-01T09:27:00.498Z,58.25
2023-11-01T09:29:27.440Z,58.00
2023-11-01T09:31:54.381Z,57.79
2023-11-01T09:34:21.454Z,57.58
2023-11-01T09:36:48.386Z,58.70
2023-11-01T09:39:15.229Z,57.63
2023-11-01T09:41:42.432Z,57.31
2023-11-01T09:44:09.402Z,56.95
2023-11-01T09:46:36.423Z,56.59
2023-11-01T09:49:03.492Z,56.88
2023-11-01T09:51:30.409Z,55.90
2023-11-01T09:53:57.359Z,55.33
2023-11-01T09:56:24.380Z,55.96
2023-11-01T09:58:51.350Z,57.67
2023-11-01T10:01:18.327Z,56.10
2023-11-01T10:03:45.400Z,55.43
2023-11-01T10:06:12.698Z,56.03
2023-11-01T10:08:39.600Z,56.05
2023-11-01T10:11:12.624Z,55.60
2023-11-01T10:13:39.609Z,55.51
2023-11-01T10:16:06.618Z,55.19
2023-11-01T10:18:33.726Z,55.94
2023-11-01T10:21:00.761Z,56.37
2023-11-01T10:23:27.763Z,56.12
2023-11-01T10:25:54.759Z,55.98
2023-11-01T10:28:21.711Z,54.99
2023-11-01T10:30:48.601Z,56.40
2023-11-01T10:33:15.738Z,56.88
2023-11-01T10:35:51.939Z,56.98
2023-11-01T10:38:18.940Z,55.93
2023-11-01T10:40:49.121Z,56.14
2023-11-01T10:43:16.102Z,55.69
2023-11-01T10:45:43.056Z,54.70
2023-11-01T10:48:10.223Z,55.79
2023-11-01T10:50:37.213Z,55.32
2023-11-01T10:53:04.196Z,55.75
2023-11-01T10:55:31.191Z,56.11
2023-11-01T10:57:58.096Z,55.77
2023-11-01T11:00:25.113Z,56.69
2023-11-01T11:02:52.181Z,56.14
2023-11-01T11:05:20.666Z,57.37
2023-11-01T11:07:47.561Z,58.41
2023-11-01T11:10:14.674Z,57.94
2023-11-01T11:12:41.599Z,57.39
2023-11-01T11:15:09.544Z,56.91
2023-11-01T11:17:36.634Z,55.73
2023-11-01T11:20:03.563Z,55.38
2023-11-01T11:22:30.432Z,55.60
2023-11-01T11:24:57.341Z,54.65
2023-11-01T11:27:24.182Z,54.21
2023-11-01T11:29:51.116Z,54.58
2023-11-01T11:32:18.288Z,53.77
2023-11-01T11:34:45.383Z,53.01
2023-11-01T11:37:12.371Z,53.59
2023-11-01T11:39:39.698Z,53.23
2023-11-01T11:42:06.667Z,52.46
2023-11-01T11:44:33.812Z,52.41
2023-11-01T11:47:00.860Z,52.50
2023-11-01T11:49:27.969Z,52.19
2023-11-01T11:51:55.077Z,52.42
2023-11-01T11:54:22.380Z,53.39
2023-11-01T11:56:49.605Z,53.33
2023-11-01T11:59:16.577Z,52.94
2023-11-01T12:01:43.626Z,51.85
2023-11-01T12:04:10.680Z,50.85
2023-11-01T12:06:37.667Z,51.76
2023-11-01T12:09:04.733Z,51.99
2023-11-01T12:11:31.756Z,51.45
2023-11-01T12:13:58.721Z,52.20
2023-11-01T12:16:25.792Z,52.43
2023-11-01T12:18:52.685Z,52.02
2023-11-01T12:21:20.982Z,52.78
2023-11-01T12:23:49.789Z,50.86
2023-11-01T12:26:17.794Z,51.86
2023-11-01T12:28:44.714Z,52.05
2023-11-01T12:31:11.689Z,51.55
2023-11-01T12:33:38.740Z,52.41
2023-11-01T12:36:05.747Z,51.47
2023-11-01T12:38:32.853Z,52.68
2023-11-01T12:40:59.839Z,51.29
2023-11-01T12:43:26.756Z,51.24
2023-11-01T12:45:53.865Z,51.43
2023-11-01T12:48:20.840Z,49.58
2023-11-01T12:50:47.830Z,49.59
2023-11-01T12:53:14.798Z,50.26
2023-11-01T12:55:41.731Z,51.24
2023-11-01T12:58:14.534Z,50.38
2023-11-01T15:15:34.830Z,66.47
2023-11-01T19:54:13.487Z,63.92
2023-11-01T19:56:44.058Z,64.80
2023-11-01T19:59:11.486Z,63.45
2023-11-01T20:01:38.666Z,64.10
2023-11-01T20:04:06.078Z,63.68
2023-11-01T20:06:33.231Z,62.97
2023-11-01T20:39:22.394Z,62.89
2023-11-01T20:41:49.470Z,62.62
2023-11-01T20:44:16.452Z,62.58
2023-11-01T20:46:43.451Z,61.86
2023-11-01T20:49:10.820Z,61.43
2023-11-01T20:51:38.505Z,60.87
2023-11-01T20:54:05.483Z,61.73
2023-11-01T20:56:32.567Z,62.13
2023-11-01T20:58:59.510Z,63.70
2023-11-01T21:01:26.447Z,63.86
2023-11-01T21:03:53.639Z,64.27
2023-11-01T21:06:20.795Z,64.37
2023-11-01T21:08:47.875Z,64.24
2023-11-01T21:11:14.967Z,64.58
2023-11-01T21:13:42.000Z,63.99
2023-11-01T21:16:08.991Z,64.65
2023-11-01T21:18:36.380Z,64.26
2023-11-01T21:21:03.501Z,64.00
2023-11-01T21:23:30.533Z,63.91
2023-11-01T21:25:58.735Z,63.32
2023-11-01T21:28:25.843Z,63.69
2023-11-01T21:30:56.257Z,64.37
2023-11-01T21:36:23.540Z,63.44
